sensor_id;sensor_type;location;lat;lon;timestamp;P1;durP1;ratioP1;P2;durP2;ratioP2
9224;SDS011;4647;48.072;11.616;2023-04-03T00:02:10;24.37;;;21.73;;
9224;SDS011;4647;48.072;11.616;2023-04-03T00:04:38;22.47;;;19.97;;
9224;SDS011;4647;48.072;11.616;2023-04-03T00:07:06;22.67;;;20.47;;
9224;SDS011;4647;48.072;11.616;2023-04-03T00:09:35;32.10;;;28.83;;
9224;SDS011;4647;48.072;11.616;2023-04-03T00:12:03;26.63;;;23.90;;
9224;SDS011;4647;48.072;11.616;2023-04-03T00:14:32;36.33;;;32.67;;
9224;SDS011;4647;48.072;11.616;2023-04-03T00:17:00;32.13;;;28.87;;
9224;SDS011;4647;48.072;11.616;2023-04-03T00:19:32;24.97;;;22.23;;
9224;SDS011;4647;48.072;11.616;2023-04-03T00:22:00;33.30;;;29.63;;
9224;SDS011;4647;48.072;11.616;2023-04-03T00:24:29;27.37;;;24.60;;
9224;SDS011;4647;48.072;11.616;2023-04-03T00:26:57;36.13;;;32.30;;
9224;SDS011;4647;48.072;11.616;2023-04-03T00:29:26;29.73;;;26.90;;
9224;SDS011;4647;48.072;11.616;2023-04-03T00:31:55;26.87;;;24.07;;
9224;SDS011;4647;48.072;11.616;2023-04-03T00:34:24;34.83;;;31.27;;
9224;SDS011;4647;48.072;11.616;2023-04-03T00:36:56;24.80;;;22.43;;
9224;SDS011;4647;48.072;11.616;2023-04-03T00:39:25;26.97;;;24.17;;
9224;SDS011;4647;48.072;11.616;2023-04-03T00:41:54;24.77;;;22.17;;
9224;SDS011;4647;48.072;11.616;2023-04-03T00:45:21;25.40;;;22.97;;
9224;SDS011;4647;48.072;11.616;2023-04-03T00:47:26;28.43;;;25.63;;
9224;SDS011;4647;48.072;11.616;2023-04-03T00:49:55;30.13;;;27.17;;
9224;SDS011;4647;48.072;11.616;2023-04-03T00:52:28;24.83;;;22.40;;
9224;SDS011;4647;48.072;11.616;2023-04-03T00:54:58;25.27;;;22.73;;
9224;SDS011;4647;48.072;11.616;2023-04-03T00:57:30;24.13;;;21.57;;
9224;SDS011;4647;48.072;11.616;2023-04-03T01:00:00;29.37;;;26.60;;
9224;SDS011;4647;48.072;11.616;2023-04-03T01:02:34;26.23;;;23.70;;
9224;SDS011;4647;48.072;11.616;2023-04-03T01:05:06;22.87;;;20.50;;
9224;SDS011;4647;48.072;11.616;2023-04-03T01:07:37;21.90;;;19.83;;
9224;SDS011;4647;48.072;11.616;2023-04-03T01:10:08;24.50;;;22.07;;
9224;SDS011;4647;48.072;11.616;2023-04-03T01:12:39;23.60;;;21.30;;
9224;SDS011;4647;48.072;11.616;2023-04-03T01:15:12;23.57;;;20.43;;
9224;SDS011;4647;48.072;11.616;2023-04-03T01:17:43;23.83;;;21.53;;
9224;SDS011;4647;48.072;11.616;2023-04-03T01:23:27;22.87;;;20.77;;
9224;SDS011;4647;48.072;11.616;2023-04-03T01:26:04;25.13;;;22.70;;
9224;SDS011;4647;48.072;11.616;2023-04-03T01:28:34;25.47;;;22.93;;
9224;SDS011;4647;48.072;11.616;2023-04-03T01:31:05;19.73;;;17.83;;
9224;SDS011;4647;48.072;11.616;2023-04-03T01:33:43;21.17;;;19.13;;
9224;SDS011;4647;48.072;11.616;2023-04-03T01:36:13;20.80;;;18.93;;
9224;SDS011;4647;48.072;11.616;2023-04-03T01:38:43;23.70;;;21.50;;
9224;SDS011;4647;48.072;11.616;2023-04-03T01:41:11;21.30;;;19.20;;
9224;SDS011;4647;48.072;11.616;2023-04-03T01:43:41;21.40;;;19.27;;
9224;SDS011;4647;48.072;11.616;2023-04-03T01:46:09;19.97;;;18.17;;
9224;SDS011;4647;48.072;11.616;2023-04-03T01:48:38;16.87;;;15.37;;
9224;SDS011;4647;48.072;11.616;2023-04-03T01:51:09;18.80;;;16.90;;
9224;SDS011;4647;48.072;11.616;2023-04-03T01:53:38;24.03;;;21.53;;
9224;SDS011;4647;48.072;11.616;2023-04-03T01:56:07;17.77;;;16.03;;
9224;SDS011;4647;48.072;11.616;2023-04-03T01:58:35;19.80;;;17.80;;
9224;SDS011;4647;48.072;11.616;2023-04-03T02:01:04;22.37;;;20.07;;
9224;SDS011;4647;48.072;11.616;2023-04-03T02:03:33;28.60;;;25.73;;
9224;SDS011;4647;48.072;11.616;2023-04-03T02:06:02;27.90;;;25.30;;
9224;SDS011;4647;48.072;11.616;2023-04-03T02:08:33;24.73;;;22.33;;
9224;SDS011;4647;48.072;11.616;2023-04-03T02:11:01;24.87;;;22.37;;
9224;SDS011;4647;48.072;11.616;2023-04-03T02:13:30;25.03;;;22.70;;
9224;SDS011;4647;48.072;11.616;2023-04-03T02:15:58;20.30;;;18.30;;
9224;SDS011;4647;48.072;11.616;2023-04-03T02:18:27;21.50;;;19.60;;
9224;SDS011;4647;48.072;11.616;2023-04-03T02:20:55;22.07;;;19.97;;
9224;SDS011;4647;48.072;11.616;2023-04-03T02:23:23;23.57;;;21.27;;
9224;SDS011;4647;48.072;11.616;2023-04-03T02:26:01;22.50;;;20.40;;
9224;SDS011;4647;48.072;11.616;2023-04-03T02:28:31;20.87;;;18.90;;
9224;SDS011;4647;48.072;11.616;2023-04-03T02:31:00;19.47;;;17.67;;
9224;SDS011;4647;48.072;11.616;2023-04-03T02:33:28;23.13;;;20.63;;
9224;SDS011;4647;48.072;11.616;2023-04-03T02:35:57;18.47;;;16.77;;
9224;SDS011;4647;48.072;11.616;2023-04-03T02:38:26;20.03;;;17.67;;
9224;SDS011;4647;48.072;11.616;2023-04-03T02:41:02;17.20;;;15.50;;
9224;SDS011;4647;48.072;11.616;2023-04-03T02:43:31;21.07;;;19.20;;
9224;SDS011;4647;48.072;11.616;2023-04-03T02:46:00;19.23;;;17.43;;
9224;SDS011;4647;48.072;11.616;2023-04-03T02:48:28;18.10;;;16.40;;
9224;SDS011;4647;48.072;11.616;2023-04-03T02:50:56;16.17;;;14.60;;
9224;SDS011;4647;48.072;11.616;2023-04-03T02:53:26;16.70;;;15.17;;
9224;SDS011;4647;48.072;11.616;2023-04-03T02:55:54;18.20;;;16.50;;
9224;SDS011;4647;48.072;11.616;2023-04-03T02:58:25;18.80;;;17.03;;
9224;SDS011;4647;48.072;11.616;2023-04-03T03:00:54;19.50;;;17.50;;
9224;SDS011;4647;48.072;11.616;2023-04-03T03:03:22;18.37;;;16.53;;
9224;SDS011;4647;48.072;11.616;2023-04-03T03:06:00;17.60;;;15.83;;
9224;SDS011;4647;48.072;11.616;2023-04-03T03:08:29;13.30;;;12.00;;
9224;SDS011;4647;48.072;11.616;2023-04-03T03:10:57;17.67;;;16.03;;
9224;SDS011;4647;48.072;11.616;2023-04-03T03:13:28;19.30;;;17.30;;
9224;SDS011;4647;48.072;11.616;2023-04-03T03:15:57;17.33;;;15.67;;
9224;SDS011;4647;48.072;11.616;2023-04-03T03:18:26;16.07;;;14.57;;
9224;SDS011;4647;48.072;11.616;2023-04-03T03:20:56;16.17;;;14.67;;
9224;SDS011;4647;48.072;11.616;2023-04-03T03:23:26;17.27;;;15.53;;
9224;SDS011;4647;48.072;11.616;2023-04-03T03:25:57;18.07;;;16.27;;
9224;SDS011;4647;48.072;11.616;2023-04-03T03:28:30;16.30;;;14.77;;
9224;SDS011;4647;48.072;11.616;2023-04-03T03:30:59;16.37;;;14.77;;
9224;SDS011;4647;48.072;11.616;2023-04-03T03:33:29;14.67;;;13.37;;
9224;SDS011;4647;48.072;11.616;2023-04-03T03:35:58;16.37;;;14.77;;
9224;SDS011;4647;48.072;11.616;2023-04-03T03:38:27;11.43;;;10.27;;
9224;SDS011;4647;48.072;11.616;2023-04-03T03:40:56;11.83;;;10.63;;
9224;SDS011;4647;48.072;11.616;2023-04-03T03:43:24;10.50;;;8.80;;
9224;SDS011;4647;48.072;11.616;2023-04-03T03:45:55;9.83;;;8.93;;
9224;SDS011;4647;48.072;11.616;2023-04-03T03:48:24;10.60;;;9.60;;
9224;SDS011;4647;48.072;11.616;2023-04-03T03:50:52;10.83;;;9.90;;
9224;SDS011;4647;48.072;11.616;2023-04-03T03:53:21;10.93;;;9.57;;
9224;SDS011;4647;48.072;11.616;2023-04-03T03:55:49;8.90;;;8.10;;
9224;SDS011;4647;48.072;11.616;2023-04-03T03:58:18;11.60;;;10.60;;
9224;SDS011;4647;48.072;11.616;2023-04-03T04:00:46;11.97;;;10.87;;
9224;SDS011;4647;48.072;11.616;2023-04-03T04:03:17;10.40;;;9.40;;
9224;SDS011;4647;48.072;11.616;2023-04-03T04:05:46;10.90;;;9.90;;
9224;SDS011;4647;48.072;11.616;2023-04-03T04:08:14;10.37;;;9.27;;
9224;SDS011;4647;48.072;11.616;2023-04-03T04:10:43;10.20;;;9.07;;
9224;SDS011;4647;48.072;11.616;2023-04-03T04:13:11;10.20;;;9.30;;
9224;SDS011;4647;48.072;11.616;2023-04-03T04:15:39;8.93;;;8.10;;
9224;SDS011;4647;48.072;11.616;2023-04-03T04:18:08;9.50;;;8.70;;
9224;SDS011;4647;48.072;11.616;2023-04-03T04:20:39;10.13;;;9.07;;
9224;SDS011;4647;48.072;11.616;2023-04-03T04:23:07;9.93;;;8.90;;
9224;SDS011;4647;48.072;11.616;2023-04-03T04:25:36;10.27;;;9.27;;
9224;SDS011;4647;48.072;11.616;2023-04-03T04:28:05;9.70;;;8.80;;
9224;SDS011;4647;48.072;11.616;2023-04-03T04:30:33;9.27;;;8.47;;
9224;SDS011;4647;48.072;11.616;2023-04-03T04:33:02;10.10;;;9.10;;
9224;SDS011;4647;48.072;11.616;2023-04-03T04:35:30;9.60;;;7.37;;
9224;SDS011;4647;48.072;11.616;2023-04-03T04:38:01;10.40;;;8.60;;
9224;SDS011;4647;48.072;11.616;2023-04-03T04:40:30;7.73;;;7.07;;
9224;SDS011;4647;48.072;11.616;2023-04-03T04:42:59;10.10;;;9.10;;
9224;SDS011;4647;48.072;11.616;2023-04-03T04:45:27;9.57;;;8.67;;
9224;SDS011;4647;48.072;11.616;2023-04-03T04:47:56;8.97;;;8.10;;
9224;SDS011;4647;48.072;11.616;2023-04-03T04:50:24;8.83;;;7.93;;
9224;SDS011;4647;48.072;11.616;2023-04-03T04:52:53;10.10;;;9.10;;
9224;SDS011;4647;48.072;11.616;2023-04-03T04:55:24;8.97;;;8.17;;
9224;SDS011;4647;48.072;11.616;2023-04-03T04:57:52;10.40;;;9.00;;
9224;SDS011;4647;48.072;11.616;2023-04-03T05:00:21;9.30;;;8.30;;
9224;SDS011;4647;48.072;11.616;2023-04-03T05:02:50;10.37;;;8.77;;
9224;SDS011;4647;48.072;11.616;2023-04-03T05:05:18;8.77;;;7.80;;
9224;SDS011;4647;48.072;11.616;2023-04-03T05:07:47;10.97;;;8.30;;
9224;SDS011;4647;48.072;11.616;2023-04-03T05:10:15;8.57;;;7.73;;
9224;SDS011;4647;48.072;11.616;2023-04-03T05:12:46;8.23;;;7.53;;
9224;SDS011;4647;48.072;11.616;2023-04-03T05:15:15;8.50;;;7.80;;
9224;SDS011;4647;48.072;11.616;2023-04-03T05:17:44;9.17;;;7.97;;
9224;SDS011;4647;48.072;11.616;2023-04-03T05:20:13;7.97;;;7.27;;
9224;SDS011;4647;48.072;11.616;2023-04-03T05:22:41;8.43;;;7.63;;
9224;SDS011;4647;48.072;11.616;2023-04-03T05:25:09;8.20;;;7.43;;
9224;SDS011;4647;48.072;11.616;2023-04-03T05:27:38;8.83;;;8.03;;
9224;SDS011;4647;48.072;11.616;2023-04-03T05:30:10;10.57;;;9.57;;
9224;SDS011;4647;48.072;11.616;2023-04-03T05:32:39;9.20;;;8.30;;
9224;SDS011;4647;48.072;11.616;2023-04-03T05:35:08;8.43;;;7.73;;
9224;SDS011;4647;48.072;11.616;2023-04-03T05:37:37;9.37;;;8.53;;
9224;SDS011;4647;48.072;11.616;2023-04-03T05:40:06;8.60;;;7.80;;
9224;SDS011;4647;48.072;11.616;2023-04-03T05:42:35;7.37;;;6.67;;
9224;SDS011;4647;48.072;11.616;2023-04-03T05:45:04;8.47;;;7.20;;
9224;SDS011;4647;48.072;11.616;2023-04-03T05:47:36;7.90;;;7.13;;
9224;SDS011;4647;48.072;11.616;2023-04-03T05:50:05;8.27;;;7.30;;
9224;SDS011;4647;48.072;11.616;2023-04-03T05:52:35;7.93;;;7.13;;
9224;SDS011;4647;48.072;11.616;2023-04-03T05:55:06;8.50;;;7.70;;
9224;SDS011;4647;48.072;11.616;2023-04-03T05:57:35;7.90;;;7.20;;
9224;SDS011;4647;48.072;11.616;2023-04-03T06:00:04;11.03;;;9.97;;
9224;SDS011;4647;48.072;11.616;2023-04-03T06:02:37;9.73;;;8.73;;
9224;SDS011;4647;48.072;11.616;2023-04-03T06:05:07;22.40;;;20.27;;
9224;SDS011;4647;48.072;11.616;2023-04-03T06:07:36;11.40;;;10.40;;
9224;SDS011;4647;48.072;11.616;2023-04-03T06:10:06;7.30;;;6.63;;
9224;SDS011;4647;48.072;11.616;2023-04-03T06:12:35;7.53;;;6.23;;
9224;SDS011;4647;48.072;11.616;2023-04-03T06:15:04;8.00;;;7.30;;
9224;SDS011;4647;48.072;11.616;2023-04-03T06:17:37;7.03;;;6.33;;
9224;SDS011;4647;48.072;11.616;2023-04-03T06:20:06;6.83;;;6.20;;
9224;SDS011;4647;48.072;11.616;2023-04-03T06:22:35;6.67;;;6.07;;
9224;SDS011;4647;48.072;11.616;2023-04-03T06:25:04;7.23;;;6.23;;
9224;SDS011;4647;48.072;11.616;2023-04-03T06:27:34;6.63;;;5.90;;
9224;SDS011;4647;48.072;11.616;2023-04-03T06:30:03;7.13;;;6.17;;
9224;SDS011;4647;48.072;11.616;2023-04-03T06:32:33;7.77;;;6.03;;
9224;SDS011;4647;48.072;11.616;2023-04-03T06:35:04;6.90;;;6.20;;
9224;SDS011;4647;48.072;11.616;2023-04-03T06:37:34;7.03;;;6.10;;
9224;SDS011;4647;48.072;11.616;2023-04-03T06:40:03;10.27;;;5.70;;
9224;SDS011;4647;48.072;11.616;2023-04-03T06:42:32;5.90;;;5.40;;
9224;SDS011;4647;48.072;11.616;2023-04-03T06:45:01;6.80;;;6.10;;
9224;SDS011;4647;48.072;11.616;2023-04-03T06:47:30;7.93;;;6.63;;
9224;SDS011;4647;48.072;11.616;2023-04-03T06:49:58;7.17;;;5.93;;
9224;SDS011;4647;48.072;11.616;2023-04-03T06:52:29;6.07;;;5.47;;
9224;SDS011;4647;48.072;11.616;2023-04-03T06:54:58;6.07;;;5.00;;
9224;SDS011;4647;48.072;11.616;2023-04-03T06:57:26;5.67;;;5.10;;
9224;SDS011;4647;48.072;11.616;2023-04-03T06:59:55;7.80;;;5.73;;
9224;SDS011;4647;48.072;11.616;2023-04-03T07:02:23;8.40;;;5.33;;
9224;SDS011;4647;48.072;11.616;2023-04-03T07:04:52;6.80;;;5.00;;
9224;SDS011;4647;48.072;11.616;2023-04-03T07:07:20;9.27;;;5.63;;
9224;SDS011;4647;48.072;11.616;2023-04-03T07:09:52;6.13;;;5.53;;
9224;SDS011;4647;48.072;11.616;2023-04-03T07:12:23;6.13;;;5.40;;
9224;SDS011;4647;48.072;11.616;2023-04-03T07:14:52;8.50;;;5.27;;
9224;SDS011;4647;48.072;11.616;2023-04-03T07:17:20;6.20;;;5.47;;
9224;SDS011;4647;48.072;11.616;2023-04-03T07:19:49;6.90;;;5.27;;
9224;SDS011;4647;48.072;11.616;2023-04-03T07:22:17;7.63;;;5.37;;
9224;SDS011;4647;48.072;11.616;2023-04-03T07:24:46;6.50;;;5.20;;
9224;SDS011;4647;48.072;11.616;2023-04-03T07:27:17;6.90;;;5.17;;
9224;SDS011;4647;48.072;11.616;2023-04-03T07:29:45;6.13;;;5.57;;
9224;SDS011;4647;48.072;11.616;2023-04-03T07:32:14;6.13;;;5.53;;
9224;SDS011;4647;48.072;11.616;2023-04-03T07:34:42;13.13;;;6.57;;
9224;SDS011;4647;48.072;11.616;2023-04-03T07:37:11;11.20;;;6.30;;
9224;SDS011;4647;48.072;11.616;2023-04-03T07:39:43;13.00;;;7.27;;
9224;SDS011;4647;48.072;11.616;2023-04-03T07:42:11;12.33;;;6.90;;
9224;SDS011;4647;48.072;11.616;2023-04-03T07:44:45;6.30;;;5.43;;
9224;SDS011;4647;48.072;11.616;2023-04-03T07:47:14;8.00;;;5.63;;
9224;SDS011;4647;48.072;11.616;2023-04-03T07:49:43;7.50;;;6.23;;
9224;SDS011;4647;48.072;11.616;2023-04-03T07:52:12;8.57;;;5.63;;
9224;SDS011;4647;48.072;11.616;2023-04-03T07:54:41;6.27;;;5.67;;
9224;SDS011;4647;48.072;11.616;2023-04-03T07:57:10;10.20;;;6.53;;
9224;SDS011;4647;48.072;11.616;2023-04-03T07:59:41;7.20;;;6.40;;
9224;SDS011;4647;48.072;11.616;2023-04-03T08:02:09;10.13;;;6.07;;
9224;SDS011;4647;48.072;11.616;2023-04-03T08:04:38;19.50;;;8.50;;
9224;SDS011;4647;48.072;11.616;2023-04-03T08:07:06;11.43;;;6.90;;
9224;SDS011;4647;48.072;11.616;2023-04-03T08:09:35;5.63;;;5.10;;
9224;SDS011;4647;48.072;11.616;2023-04-03T08:12:03;6.57;;;5.63;;
9224;SDS011;4647;48.072;11.616;2023-04-03T08:14:32;6.20;;;5.67;;
9224;SDS011;4647;48.072;11.616;2023-04-03T08:17:04;8.50;;;6.00;;
9224;SDS011;4647;48.072;11.616;2023-04-03T08:19:36;7.10;;;6.37;;
9224;SDS011;4647;48.072;11.616;2023-04-03T08:22:06;8.10;;;5.97;;
9224;SDS011;4647;48.072;11.616;2023-04-03T08:24:35;6.90;;;5.63;;
9224;SDS011;4647;48.072;11.616;2023-04-03T08:27:03;15.50;;;8.67;;
9224;SDS011;4647;48.072;11.616;2023-04-03T08:29:32;6.37;;;5.70;;
9224;SDS011;4647;48.072;11.616;2023-04-03T08:32:05;7.23;;;5.67;;
9224;SDS011;4647;48.072;11.616;2023-04-03T08:34:33;8.53;;;5.60;;
9224;SDS011;4647;48.072;11.616;2023-04-03T08:37:04;9.57;;;7.03;;
9224;SDS011;4647;48.072;11.616;2023-04-03T08:39:33;18.10;;;9.23;;
9224;SDS011;4647;48.072;11.616;2023-04-03T08:42:02;38.73;;;17.33;;
9224;SDS011;4647;48.072;11.616;2023-04-03T08:44:38;14.90;;;8.20;;
9224;SDS011;4647;48.072;11.616;2023-04-03T08:47:20;9.90;;;6.13;;
9224;SDS011;4647;48.072;11.616;2023-04-03T08:49:53;9.33;;;6.17;;
9224;SDS011;4647;48.072;11.616;2023-04-03T08:52:27;8.20;;;5.73;;
9224;SDS011;4647;48.072;11.616;2023-04-03T08:55:04;7.80;;;6.20;;
9224;SDS011;4647;48.072;11.616;2023-04-03T08:57:36;8.17;;;5.97;;
9224;SDS011;4647;48.072;11.616;2023-04-03T09:00:15;23.00;;;18.13;;
9224;SDS011;4647;48.072;11.616;2023-04-03T09:02:49;9.67;;;8.23;;
9224;SDS011;4647;48.072;11.616;2023-04-03T09:05:20;8.30;;;6.23;;
9224;SDS011;4647;48.072;11.616;2023-04-03T09:07:58;15.03;;;8.77;;
9224;SDS011;4647;48.072;11.616;2023-04-03T09:10:33;7.33;;;5.70;;
9224;SDS011;4647;48.072;11.616;2023-04-03T09:13:05;8.33;;;5.60;;
9224;SDS011;4647;48.072;11.616;2023-04-03T09:15:38;8.40;;;5.73;;
9224;SDS011;4647;48.072;11.616;2023-04-03T09:18:15;7.43;;;5.90;;
9224;SDS011;4647;48.072;11.616;2023-04-03T09:20:49;7.93;;;5.33;;
9224;SDS011;4647;48.072;11.616;2023-04-03T09:23:26;11.37;;;6.93;;
9224;SDS011;4647;48.072;11.616;2023-04-03T09:26:00;7.80;;;5.80;;
9224;SDS011;4647;48.072;11.616;2023-04-03T09:28:32;17.63;;;9.27;;
9224;SDS011;4647;48.072;11.616;2023-04-03T09:31:05;5.40;;;4.73;;
9224;SDS011;4647;48.072;11.616;2023-04-03T09:33:47;9.50;;;5.10;;
9224;SDS011;4647;48.072;11.616;2023-04-03T09:39:06;6.30;;;5.40;;
9224;SDS011;4647;48.072;11.616;2023-04-03T09:41:39;6.57;;;5.30;;
9224;SDS011;4647;48.072;11.616;2023-04-03T09:44:20;6.23;;;5.03;;
9224;SDS011;4647;48.072;11.616;2023-04-03T09:46:50;25.13;;;11.00;;
9224;SDS011;4647;48.072;11.616;2023-04-03T09:49:21;124.80;;;38.33;;
9224;SDS011;4647;48.072;11.616;2023-04-03T09:51:50;19.87;;;8.80;;
9224;SDS011;4647;48.072;11.616;2023-04-03T09:54:32;11.30;;;5.53;;
9224;SDS011;4647;48.072;11.616;2023-04-03T09:57:07;9.73;;;5.87;;
9224;SDS011;4647;48.072;11.616;2023-04-03T09:59:46;8.43;;;5.50;;
9224;SDS011;4647;48.072;11.616;2023-04-03T10:02:29;28.30;;;11.70;;
9224;SDS011;4647;48.072;11.616;2023-04-03T10:05:23;12.17;;;6.63;;
9224;SDS011;4647;48.072;11.616;2023-04-03T10:08:07;27.80;;;15.00;;
9224;SDS011;4647;48.072;11.616;2023-04-03T10:10:37;18.60;;;9.90;;
9224;SDS011;4647;48.072;11.616;2023-04-03T10:13:06;20.33;;;10.07;;
9224;SDS011;4647;48.072;11.616;2023-04-03T10:15:39;7.07;;;5.27;;
9224;SDS011;4647;48.072;11.616;2023-04-03T10:18:19;9.50;;;6.07;;
9224;SDS011;4647;48.072;11.616;2023-04-03T10:21:00;6.50;;;4.43;;
9224;SDS011;4647;48.072;11.616;2023-04-03T10:23:36;5.97;;;5.05;;
9224;SDS011;4647;48.072;11.616;2023-04-03T10:26:13;5.53;;;4.80;;
9224;SDS011;4647;48.072;11.616;2023-04-03T10:28:45;6.80;;;5.00;;
9224;SDS011;4647;48.072;11.616;2023-04-03T10:31:22;5.90;;;4.10;;
9224;SDS011;4647;48.072;11.616;2023-04-03T10:33:56;5.33;;;4.30;;
9224;SDS011;4647;48.072;11.616;2023-04-03T10:36:41;4.73;;;3.63;;
9224;SDS011;4647;48.072;11.616;2023-04-03T10:39:16;6.87;;;4.40;;
9224;SDS011;4647;48.072;11.616;2023-04-03T10:41:56;6.60;;;3.77;;
9224;SDS011;4647;48.072;11.616;2023-04-03T10:44:31;5.00;;;4.13;;
9224;SDS011;4647;48.072;11.616;2023-04-03T10:47:09;6.33;;;4.43;;
9224;SDS011;4647;48.072;11.616;2023-04-03T10:49:46;7.47;;;4.67;;
9224;SDS011;4647;48.072;11.616;2023-04-03T10:52:27;6.67;;;5.07;;
9224;SDS011;4647;48.072;11.616;2023-04-03T10:55:08;8.70;;;5.90;;
9224;SDS011;4647;48.072;11.616;2023-04-03T10:57:52;7.80;;;5.40;;
9224;SDS011;4647;48.072;11.616;2023-04-03T11:00:26;6.20;;;5.60;;
9224;SDS011;4647;48.072;11.616;2023-04-03T11:03:03;6.20;;;5.57;;
9224;SDS011;4647;48.072;11.616;2023-04-03T11:05:36;6.33;;;5.70;;
9224;SDS011;4647;48.072;11.616;2023-04-03T11:08:13;11.40;;;5.80;;
9224;SDS011;4647;48.072;11.616;2023-04-03T11:10:51;5.33;;;4.87;;
9224;SDS011;4647;48.072;11.616;2023-04-03T11:13:28;5.90;;;4.97;;
9224;SDS011;4647;48.072;11.616;2023-04-03T11:16:01;5.67;;;5.17;;
9224;SDS011;4647;48.072;11.616;2023-04-03T11:18:33;7.63;;;5.63;;
9224;SDS011;4647;48.072;11.616;2023-04-03T11:21:07;7.83;;;6.47;;
9224;SDS011;4647;48.072;11.616;2023-04-03T11:23:43;8.10;;;6.50;;
9224;SDS011;4647;48.072;11.616;2023-04-03T11:26:13;6.77;;;5.33;;
9224;SDS011;4647;48.072;11.616;2023-04-03T11:28:45;6.77;;;5.00;;
9224;SDS011;4647;48.072;11.616;2023-04-03T11:31:23;7.40;;;5.27;;
9224;SDS011;4647;48.072;11.616;2023-04-03T11:34:08;6.20;;;4.77;;
9224;SDS011;4647;48.072;11.616;2023-04-03T11:36:49;6.73;;;4.40;;
9224;SDS011;4647;48.072;11.616;2023-04-03T11:39:25;4.37;;;3.50;;
9224;SDS011;4647;48.072;11.616;2023-04-03T11:44:44;5.03;;;4.07;;
9224;SDS011;4647;48.072;11.616;2023-04-03T11:47:12;5.60;;;4.07;;
9224;SDS011;4647;48.072;11.616;2023-04-03T11:56:26;5.70;;;3.47;;
9224;SDS011;4647;48.072;11.616;2023-04-03T11:59:16;9.67;;;4.10;;
9224;SDS011;4647;48.072;11.616;2023-04-03T12:01:51;9.70;;;5.67;;
9224;SDS011;4647;48.072;11.616;2023-04-03T12:04:21;5.97;;;3.93;;
9224;SDS011;4647;48.072;11.616;2023-04-03T12:07:02;5.90;;;3.30;;
9224;SDS011;4647;48.072;11.616;2023-04-03T12:12:59;4.57;;;3.40;;
9224;SDS011;4647;48.072;11.616;2023-04-03T12:18:31;4.57;;;3.23;;
9224;SDS011;4647;48.072;11.616;2023-04-03T12:21:09;4.47;;;3.47;;
9224;SDS011;4647;48.072;11.616;2023-04-03T12:26:30;7.00;;;3.77;;
9224;SDS011;4647;48.072;11.616;2023-04-03T12:29:09;8.50;;;3.33;;
9224;SDS011;4647;48.072;11.616;2023-04-03T12:31:45;4.60;;;3.20;;
9224;SDS011;4647;48.072;11.616;2023-04-03T12:34:43;9.10;;;3.43;;
9224;SDS011;4647;48.072;11.616;2023-04-03T12:37:23;5.67;;;3.47;;
9224;SDS011;4647;48.072;11.616;2023-04-03T12:40:10;4.37;;;3.30;;
9224;SDS011;4647;48.072;11.616;2023-04-03T12:43:03;4.23;;;3.00;;
9224;SDS011;4647;48.072;11.616;2023-04-03T12:45:59;5.30;;;3.20;;
9224;SDS011;4647;48.072;11.616;2023-04-03T12:48:31;3.13;;;2.80;;
9224;SDS011;4647;48.072;11.616;2023-04-03T12:51:06;6.03;;;2.93;;
9224;SDS011;4647;48.072;11.616;2023-04-03T12:53:35;6.27;;;2.70;;
9224;SDS011;4647;48.072;11.616;2023-04-03T12:56:19;4.83;;;2.70;;
9224;SDS011;4647;48.072;11.616;2023-04-03T12:58:52;6.20;;;3.20;;
9224;SDS011;4647;48.072;11.616;2023-04-03T13:01:25;5.93;;;3.43;;
9224;SDS011;4647;48.072;11.616;2023-04-03T13:03:55;7.13;;;2.90;;
9224;SDS011;4647;48.072;11.616;2023-04-03T13:06:26;4.80;;;3.10;;
9224;SDS011;4647;48.072;11.616;2023-04-03T13:08:58;5.30;;;3.03;;
9224;SDS011;4647;48.072;11.616;2023-04-03T13:11:30;3.37;;;2.70;;
9224;SDS011;4647;48.072;11.616;2023-04-03T13:14:04;6.40;;;3.30;;
9224;SDS011;4647;48.072;11.616;2023-04-03T13:16:36;8.53;;;3.50;;
9224;SDS011;4647;48.072;11.616;2023-04-03T13:19:06;7.43;;;2.90;;
9224;SDS011;4647;48.072;11.616;2023-04-03T13:21:44;7.00;;;2.97;;
9224;SDS011;4647;48.072;11.616;2023-04-03T13:24:13;7.40;;;2.80;;
9224;SDS011;4647;48.072;11.616;2023-04-03T13:26:41;6.90;;;3.30;;
9224;SDS011;4647;48.072;11.616;2023-04-03T13:29:18;6.63;;;3.30;;
9224;SDS011;4647;48.072;11.616;2023-04-03T13:31:54;7.00;;;2.90;;
9224;SDS011;4647;48.072;11.616;2023-04-03T13:34:25;10.57;;;2.53;;
9224;SDS011;4647;48.072;11.616;2023-04-03T13:36:57;4.77;;;3.10;;
9224;SDS011;4647;48.072;11.616;2023-04-03T13:39:29;7.03;;;3.80;;
9224;SDS011;4647;48.072;11.616;2023-04-03T13:42:00;7.33;;;3.20;;
9224;SDS011;4647;48.072;11.616;2023-04-03T13:44:42;3.37;;;2.50;;
9224;SDS011;4647;48.072;11.616;2023-04-03T13:47:19;10.20;;;3.43;;
9224;SDS011;4647;48.072;11.616;2023-04-03T13:50:00;13.50;;;3.50;;
9224;SDS011;4647;48.072;11.616;2023-04-03T13:52:31;6.10;;;2.70;;
9224;SDS011;4647;48.072;11.616;2023-04-03T13:55:03;4.30;;;2.60;;
9224;SDS011;4647;48.072;11.616;2023-04-03T13:57:49;6.07;;;2.70;;
9224;SDS011;4647;48.072;11.616;2023-04-03T14:00:20;5.83;;;2.27;;
9224;SDS011;4647;48.072;11.616;2023-04-03T14:02:58;16.10;;;3.57;;
9224;SDS011;4647;48.072;11.616;2023-04-03T14:05:26;4.83;;;2.40;;
9224;SDS011;4647;48.072;11.616;2023-04-03T14:07:55;4.60;;;2.27;;
9224;SDS011;4647;48.072;11.616;2023-04-03T14:10:24;3.50;;;2.50;;
9224;SDS011;4647;48.072;11.616;2023-04-03T14:12:52;4.97;;;2.70;;
9224;SDS011;4647;48.072;11.616;2023-04-03T14:15:22;8.43;;;4.30;;
9224;SDS011;4647;48.072;11.616;2023-04-03T14:17:54;3.97;;;2.60;;
9224;SDS011;4647;48.072;11.616;2023-04-03T14:20:26;6.60;;;2.23;;
9224;SDS011;4647;48.072;11.616;2023-04-03T14:22:55;3.33;;;2.50;;
9224;SDS011;4647;48.072;11.616;2023-04-03T14:25:24;4.53;;;2.73;;
9224;SDS011;4647;48.072;11.616;2023-04-03T14:27:53;5.33;;;2.47;;
9224;SDS011;4647;48.072;11.616;2023-04-03T14:30:22;5.47;;;2.33;;
9224;SDS011;4647;48.072;11.616;2023-04-03T14:32:53;3.63;;;2.40;;
9224;SDS011;4647;48.072;11.616;2023-04-03T14:35:23;3.77;;;2.33;;
9224;SDS011;4647;48.072;11.616;2023-04-03T14:37:55;5.77;;;2.50;;
9224;SDS011;4647;48.072;11.616;2023-04-03T14:40:24;3.57;;;2.60;;
9224;SDS011;4647;48.072;11.616;2023-04-03T14:42:54;5.70;;;2.43;;
9224;SDS011;4647;48.072;11.616;2023-04-03T14:45:23;4.73;;;2.50;;
9224;SDS011;4647;48.072;11.616;2023-04-03T14:47:53;4.30;;;2.30;;
9224;SDS011;4647;48.072;11.616;2023-04-03T14:50:23;3.77;;;2.57;;
9224;SDS011;4647;48.072;11.616;2023-04-03T14:52:55;5.67;;;4.23;;
9224;SDS011;4647;48.072;11.616;2023-04-03T14:55:26;7.63;;;5.10;;
9224;SDS011;4647;48.072;11.616;2023-04-03T14:57:55;6.23;;;2.80;;
9224;SDS011;4647;48.072;11.616;2023-04-03T15:00:24;7.63;;;3.60;;
9224;SDS011;4647;48.072;11.616;2023-04-03T15:02:52;10.53;;;3.40;;
9224;SDS011;4647;48.072;11.616;2023-04-03T15:05:21;3.87;;;2.70;;
9224;SDS011;4647;48.072;11.616;2023-04-03T15:07:53;5.83;;;2.70;;
9224;SDS011;4647;48.072;11.616;2023-04-03T15:10:23;6.07;;;2.20;;
9224;SDS011;4647;48.072;11.616;2023-04-03T15:12:53;7.60;;;2.40;;
9224;SDS011;4647;48.072;11.616;2023-04-03T15:15:22;4.10;;;2.40;;
9224;SDS011;4647;48.072;11.616;2023-04-03T15:17:52;3.50;;;2.40;;
9224;SDS011;4647;48.072;11.616;2023-04-03T15:20:23;2.80;;;2.07;;
9224;SDS011;4647;48.072;11.616;2023-04-03T15:22:58;5.87;;;3.00;;
9224;SDS011;4647;48.072;11.616;2023-04-03T15:25:28;5.97;;;2.70;;
9224;SDS011;4647;48.072;11.616;2023-04-03T15:27:56;3.33;;;2.40;;
9224;SDS011;4647;48.072;11.616;2023-04-03T15:30:25;5.77;;;2.17;;
9224;SDS011;4647;48.072;11.616;2023-04-03T15:32:54;4.77;;;2.20;;
9224;SDS011;4647;48.072;11.616;2023-04-03T15:35:22;3.27;;;2.10;;
9224;SDS011;4647;48.072;11.616;2023-04-03T15:37:51;5.43;;;2.60;;
9224;SDS011;4647;48.072;11.616;2023-04-03T15:40:22;4.67;;;2.53;;
9224;SDS011;4647;48.072;11.616;2023-04-03T15:42:50;4.33;;;2.20;;
9224;SDS011;4647;48.072;11.616;2023-04-03T15:45:19;3.60;;;2.10;;